Time;durP1;ratioP1;P1;durP2;ratioP2;P2;SDS_P1;SDS_P2;PMS_P1;PMS_P2;Temp;Humidity;BMP_temperature;BMP_pressure;BME280_temperature;BME280_humidity;BME280_pressure;Samples;Min_cycle;Max_cycle;Signal;HPM_P1;HPM_P2
2023/12/18 00:00:53;;;;;;;;;;;;;;;;;;6345865;28;19920;-82
2023/12/18 00:03:53;;;;;;;;;;;;;;;;;;6330527;28;19915;-82
2023/12/18 00:06:53;;;;;;;;;;;;;;;;;;6348192;28;20268;-81
2023/12/18 00:09:53;;;;;;;;;;;;;;;;;;6349021;28;20271;-81
2023/12/18 00:12:53;;;;;;;;;;;;;;;;;;6344657;28;19934;-82
2023/12/18 00:15:53;;;;;;;;;;;;;;;;;;6329309;28;19935;-81
2023/12/18 00:18:54;;;;;;;;;;;;;;;;;;6338446;28;19966;-81
2023/12/18 00:21:54;;;;;;;;;;;;;;;;;;6330678;28;19908;-83
2023/12/18 00:24:54;;;;;;;;;;;;;;;;;;6329636;28;19908;-81
2023/12/18 00:27:55;;;;;;;;;;;;;;;;;;6338947;28;19908;-82
2023/12/18 00:30:55;;;;;;;;;;;;;;;;;;6329083;28;20275;-81
2023/12/18 00:33:55;;;;;;;;;;;;;;;;;;6337464;28;19909;-82
2023/12/18 00:36:55;;;;;;;;;;;;;;;;;;6341182;28;19908;-81
2023/12/18 00:39:55;;;;;;;;;;;;;;;;;;6316203;28;19959;-81
2023/12/18 00:42:55;;;;;;;;;;;;;;;;;;6345373;28;19958;-81
2023/12/18 00:45:55;;;;;;;;;;;;;;;;;;6328932;28;19919;-82
2023/12/18 00:48:56;;;;;;;;;;;;;;;;;;6330189;28;19912;-81
2023/12/18 00:51:56;;;;;;;;;;;;;;;;;;6348706;28;19960;-81
2023/12/18 00:54:56;;;;;;;;;;;;;;;;;;6345005;28;19915;-82
2023/12/18 00:57:56;;;;;;;;;;;;;;;;;;6343581;28;19911;-82
2023/12/18 01:00:57;;;;;;;;;;;;;;;;;;6348039;27;19923;-82
2023/12/18 01:03:57;;;;;;;;;;;;;;;;;;6314967;28;19916;-81
2023/12/18 01:06:57;;;;;;;;;;;;;;;;;;6327318;28;19907;-82
2023/12/18 01:10:00;;;;;;;;;;;;;;;;;;6314603;28;19908;-81
2023/12/18 01:13:00;;;;;;;;;;;;;;;;;;6341658;28;20386;-82
2023/12/18 01:16:02;;;;;;;;;;;;;;;;;;6346220;28;19923;-82
2023/12/18 01:19:02;;;;;;;;;;;;;;;;;;6348055;28;19923;-82
2023/12/18 01:22:02;;;;;;;;;;;;;;;;;;6347731;28;19919;-82
2023/12/18 01:25:02;;;;;;;;;;;;;;;;;;6335010;28;20010;-85
2023/12/18 01:28:03;;;;;;;;;;;;;;;;;;6328644;28;20003;-84
2023/12/18 01:31:03;;;;;;;;;;;;;;;;;;6346148;28;19911;-82
2023/12/18 01:34:03;;;;;;;;;;;;;;;;;;6343259;27;19911;-82
2023/12/18 01:37:05;;;;;;;;;;;;;;;;;;6330283;28;20379;-82
2023/12/18 01:40:05;;;;;;;;;;;;;;;;;;6311822;28;19924;-81
2023/12/18 01:43:05;;;;;;;;;;;;;;;;;;6344807;28;19919;-81
2023/12/18 01:46:05;;;;;;;;;;;;;;;;;;6347123;28;19912;-83
2023/12/18 01:49:06;;;;;;;;;;;;;;;;;;6326703;28;19919;-82
2023/12/18 01:52:06;;;;;;;;;;;;;;;;;;6334575;28;19919;-82
2023/12/18 01:55:06;;;;;;;;;;;;;;;;;;6346606;28;19915;-81
2023/12/18 01:58:06;;;;;;;;;;;;;;;;;;6345645;28;19915;-81
2023/12/18 02:01:07;;;;;;;;;;;;;;;;;;6344547;28;19927;-83
2023/12/18 02:04:07;;;;;;;;;;;;;;;;;;6347434;28;19959;-83
2023/12/18 02:07:07;;;;;;;;;;;;;;;;;;6312443;28;20030;-83
2023/12/18 02:10:07;;;;;;;;;;;;;;;;;;6344804;28;19951;-82
2023/12/18 02:13:07;;;;;;;;;;;;;;;;;;6345115;28;19954;-86
2023/12/18 02:16:08;;;;;;;;;;;;;;;;;;6347535;28;19954;-86
2023/12/18 02:19:08;;;;;;;;;;;;;;;;;;6347341;28;19947;-84
2023/12/18 02:22:08;;;;;;;;;;;;;;;;;;6326086;28;19981;-86
2023/12/18 02:25:08;;;;;;;;;;;;;;;;;;6336307;28;19912;-86
2023/12/18 02:28:08;;;;;;;;;;;;;;;;;;6326347;28;20355;-85
2023/12/18 02:31:08;;;;;;;;;;;;;;;;;;6328548;28;20356;-86
2023/12/18 02:34:08;;;;;;;;;;;;;;;;;;6340368;28;20433;-86
2023/12/18 02:37:08;;;;;;;;;;;;;;;;;;6320303;28;19911;-85
2023/12/18 02:40:09;;;;;;;;;;;;;;;;;;6326866;28;19924;-86
2023/12/18 02:43:10;;;;;;;;;;;;;;;;;;6345641;28;19918;-85
2023/12/18 02:46:10;;;;;;;;;;;;;;;;;;6325662;28;19960;-85
2023/12/18 02:49:10;;;;;;;;;;;;;;;;;;6338387;28;19920;-86
2023/12/18 02:52:11;;;;;;;;;;;;;;;;;;6328135;28;19999;-84
2023/12/18 02:55:12;;;;;;;;;;;;;;;;;;6349790;28;19937;-85
2023/12/18 02:58:12;;;;;;;;;;;;;;;;;;6350215;28;19943;-85
2023/12/18 03:01:12;;;;;;;;;;;;;;;;;;6348917;28;19935;-86
2023/12/18 03:04:12;;;;;;;;;;;;;;;;;;6326902;28;19908;-85
2023/12/18 03:07:12;;;;;;;;;;;;;;;;;;6347289;28;19933;-85
2023/12/18 03:10:13;;;;;;;;;;;;;;;;;;6348118;28;19907;-84
2023/12/18 03:13:13;;;;;;;;;;;;;;;;;;6351682;28;19930;-85
2023/12/18 03:16:13;;;;;;;;;;;;;;;;;;6332980;28;19961;-85
2023/12/18 03:19:14;;;;;;;;;;;;;;;;;;6333184;28;19927;-84
2023/12/18 03:22:15;;;;;;;;;;;;;;;;;;6348944;28;19920;-81
2023/12/18 03:25:15;;;;;;;;;;;;;;;;;;6348350;28;20391;-81
2023/12/18 03:28:16;;;;;;;;;;;;;;;;;;6349083;28;20238;-81
2023/12/18 03:31:16;;;;;;;;;;;;;;;;;;6348650;28;19919;-82
2023/12/18 03:34:16;;;;;;;;;;;;;;;;;;6349803;28;19918;-87
2023/12/18 03:37:16;;;;;;;;;;;;;;;;;;6350253;28;19911;-80
2023/12/18 03:40:16;;;;;;;;;;;;;;;;;;6348201;28;19955;-86
2023/12/18 03:43:16;;;;;;;;;;;;;;;;;;6344307;28;19951;-82
2023/12/18 03:46:16;;;;;;;;;;;;;;;;;;6333977;28;19996;-82
2023/12/18 03:49:17;;;;;;;;;;;;;;;;;;6350158;28;19946;-80
2023/12/18 03:52:17;;;;;;;;;;;;;;;;;;6349549;28;19908;-81
2023/12/18 03:55:17;;;;;;;;;;;;;;;;;;6349998;28;19911;-81
2023/12/18 03:58:17;;;;;;;;;;;;;;;;;;6333421;28;19920;-81
2023/12/18 04:01:17;;;;;;;;;;;;;;;;;;6328781;28;20303;-81
2023/12/18 04:04:17;;;;;;;;;;;;;;;;;;6343900;28;20306;-82
2023/12/18 04:07:18;;;;;;;;;;;;;;;;;;6336905;28;19918;-81
2023/12/18 04:10:18;;;;;;;;;;;;;;;;;;6330188;28;19912;-83
2023/12/18 04:13:18;;;;;;;;;;;;;;;;;;6348837;28;20419;-81
2023/12/18 04:16:18;;;;;;;;;;;;;;;;;;6348474;28;19916;-81
2023/12/18 04:19:19;;;;;;;;;;;;;;;;;;6348594;28;19919;-81
2023/12/18 04:22:19;;;;;;;;;;;;;;;;;;6336126;28;19919;-82
2023/12/18 04:25:19;;;;;;;;;;;;;;;;;;6326941;28;19957;-81
2023/12/18 04:28:19;;;;;;;;;;;;;;;;;;6329582;28;19916;-82
2023/12/18 04:31:19;;;;;;;;;;;;;;;;;;6348972;28;19915;-81
2023/12/18 04:34:19;;;;;;;;;;;;;;;;;;6337750;28;20269;-85
2023/12/18 04:37:20;;;;;;;;;;;;;;;;;;6330056;28;19919;-84
2023/12/18 04:40:20;;;;;;;;;;;;;;;;;;6346762;28;19964;-85
2023/12/18 04:43:20;;;;;;;;;;;;;;;;;;6325880;28;19912;-86
2023/12/18 04:46:20;;;;;;;;;;;;;;;;;;6313965;28;19915;-84
2023/12/18 04:49:20;;;;;;;;;;;;;;;;;;6349753;28;20289;-84
2023/12/18 04:52:20;;;;;;;;;;;;;;;;;;6343541;28;19942;-84
2023/12/18 04:55:22;;;;;;;;;;;;;;;;;;6349418;28;19915;-84
2023/12/18 04:58:22;;;;;;;;;;;;;;;;;;6330002;28;19908;-84
2023/12/18 05:01:22;;;;;;;;;;;;;;;;;;6345865;27;19923;-84
2023/12/18 05:04:22;;;;;;;;;;;;;;;;;;6320763;28;19912;-84
2023/12/18 05:07:22;;;;;;;;;;;;;;;;;;6326041;28;20324;-85
2023/12/18 05:10:22;;;;;;;;;;;;;;;;;;6317531;28;20340;-85
2023/12/18 05:13:22;;;;;;;;;;;;;;;;;;6348124;28;20337;-86
2023/12/18 05:16:23;;;;;;;;;;;;;;;;;;6327897;28;19915;-86
2023/12/18 05:19:23;;;;;;;;;;;;;;;;;;6343149;28;19924;-85
2023/12/18 05:22:23;;;;;;;;;;;;;;;;;;6344476;28;19934;-85
2023/12/18 05:25:23;;;;;;;;;;;;;;;;;;6345443;28;19915;-85
2023/12/18 05:28:23;;;;;;;;;;;;;;;;;;6347415;28;19912;-86
2023/12/18 05:31:23;;;;;;;;;;;;;;;;;;6348202;28;19911;-85
2023/12/18 05:34:23;;;;;;;;;;;;;;;;;;6329547;28;20018;-85
2023/12/18 05:37:24;;;;;;;;;;;;;;;;;;6318741;28;20015;-85
2023/12/18 05:40:24;;;;;;;;;;;;;;;;;;6343293;27;20010;-85
2023/12/18 05:43:24;;;;;;;;;;;;;;;;;;6329112;28;19912;-85
2023/12/18 05:46:24;;;;;;;;;;;;;;;;;;6348096;28;19911;-85
2023/12/18 05:49:24;;;;;;;;;;;;;;;;;;6345087;28;19919;-86
2023/12/18 05:52:24;;;;;;;;;;;;;;;;;;6339637;28;19908;-81
2023/12/18 05:55:24;;;;;;;;;;;;;;;;;;6335720;28;19918;-80
2023/12/18 05:58:24;;;;;;;;;;;;;;;;;;6345669;28;20033;-81
2023/12/18 06:01:25;;;;;;;;;;;;;;;;;;6326265;28;20014;-81
2023/12/18 06:04:25;;;;;;;;;;;;;;;;;;6325971;28;20002;-81
2023/12/18 06:07:25;;;;;;;;;;;;;;;;;;6347565;28;19908;-81
2023/12/18 06:10:25;;;;;;;;;;;;;;;;;;6327423;28;20330;-81
2023/12/18 06:13:25;;;;;;;;;;;;;;;;;;6326286;28;19912;-81
2023/12/18 06:16:25;;;;;;;;;;;;;;;;;;6337100;28;19912;-81
2023/12/18 06:19:26;;;;;;;;;;;;;;;;;;6328791;28;20016;-80
2023/12/18 06:22:26;;;;;;;;;;;;;;;;;;6347022;28;20367;-80
2023/12/18 06:25:26;;;;;;;;;;;;;;;;;;6329197;28;19922;-81
2023/12/18 06:28:26;;;;;;;;;;;;;;;;;;6336915;28;20322;-81
2023/12/18 06:31:26;;;;;;;;;;;;;;;;;;6351659;28;20608;-82
2023/12/18 06:34:26;;;;;;;;;;;;;;;;;;6333357;28;20274;-81
2023/12/18 06:37:26;;;;;;;;;;;;;;;;;;6336511;28;19907;-81
2023/12/18 06:40:27;;;;;;;;;;;;;;;;;;6350179;28;19924;-82
2023/12/18 06:43:27;;;;;;;;;;;;;;;;;;6331221;28;19923;-82
2023/12/18 06:46:27;;;;;;;;;;;;;;;;;;6351267;28;20003;-80
2023/12/18 06:49:27;;;;;;;;;;;;;;;;;;6351534;28;19908;-82
2023/12/18 06:52:27;;;;;;;;;;;;;;;;;;6351306;28;19908;-81
2023/12/18 06:55:28;;;;;;;;;;;;;;;;;;6350304;28;19908;-84
2023/12/18 06:58:28;;;;;;;;;;;;;;;;;;6349882;28;19908;-81
2023/12/18 07:01:28;;;;;;;;;;;;;;;;;;6350409;28;19974;-82
2023/12/18 07:04:28;;;;;;;;;;;;;;;;;;6332842;28;19908;-85
2023/12/18 07:07:29;;;;;;;;;;;;;;;;;;6339539;28;19912;-89
2023/12/18 07:10:29;;;;;;;;;;;;;;;;;;6321021;28;19977;-86
2023/12/18 07:13:29;;;;;;;;;;;;;;;;;;6329162;28;19912;-86
2023/12/18 07:16:29;;;;;;;;;;;;;;;;;;6330117;28;19912;-85
2023/12/18 07:19:29;;;;;;;;;;;;;;;;;;6336239;28;20390;-86
2023/12/18 07:22:29;;;;;;;;;;;;;;;;;;6332139;28;19908;-85
2023/12/18 07:25:29;;;;;;;;;;;;;;;;;;6333817;28;19912;-86
2023/12/18 07:28:30;;;;;;;;;;;;;;;;;;6350146;28;19937;-85
2023/12/18 07:31:30;;;;;;;;;;;;;;;;;;6348888;28;19966;-86
2023/12/18 07:34:30;;;;;;;;;;;;;;;;;;6331898;28;19951;-87
2023/12/18 07:37:30;;;;;;;;;;;;;;;;;;6342301;28;19917;-87
2023/12/18 07:40:30;;;;;;;;;;;;;;;;;;6342807;28;19927;-88
2023/12/18 07:43:30;;;;;;;;;;;;;;;;;;6348881;28;19915;-87
2023/12/18 07:46:30;;;;;;;;;;;;;;;;;;6331370;28;20004;-88
2023/12/18 07:49:31;;;;;;;;;;;;;;;;;;6342239;28;20022;-88
2023/12/18 07:52:31;;;;;;;;;;;;;;;;;;6345769;28;19995;-88
2023/12/18 07:55:31;;;;;;;;;;;;;;;;;;6331072;28;19916;-87
2023/12/18 07:58:31;;;;;;;;;;;;;;;;;;6349317;28;19912;-87
2023/12/18 08:01:32;;;;;;;;;;;;;;;;;;6344970;28;19941;-88
2023/12/18 08:04:32;;;;;;;;;;;;;;;;;;6346896;28;19916;-87
2023/12/18 08:07:32;;;;;;;;;;;;;;;;;;6324916;28;19912;-87
2023/12/18 08:10:32;;;;;;;;;;;;;;;;;;6343034;28;19908;-89
2023/12/18 08:13:38;;;;;;;;;;;;;;;;;;6349694;28;19911;-89
2023/12/18 08:16:38;;;;;;;;;;;;;;;;;;6351005;28;19912;-91
2023/12/18 08:19:38;;;;;;;;;;;;;;;;;;6351804;28;19918;-90
2023/12/18 08:22:38;;;;;;;;;;;;;;;;;;6326620;28;20014;-89
2023/12/18 08:25:38;;;;;;;;;;;;;;;;;;6345909;28;19919;-90
2023/12/18 08:28:41;;;;;;;;;;;;;;;;;;6346937;28;20295;-90
2023/12/18 08:31:42;;;;;;;;;;;;;;;;;;6327198;28;19915;-89
2023/12/18 08:34:42;;;;;;;;;;;;;;;;;;6329183;28;19912;-90
2023/12/18 08:37:42;;;;;;;;;;;;;;;;;;6349946;28;20687;-90
2023/12/18 08:40:44;;;;;;;;;;;;;;;;;;6329797;28;20372;-90
2023/12/18 08:43:44;;;;;;;;;;;;;;;;;;6331167;28;19916;-90
2023/12/18 08:46:44;;;;;;;;;;;;;;;;;;6346162;28;20389;-81
2023/12/18 08:49:44;;;;;;;;;;;;;;;;;;6342423;28;19914;-89
2023/12/18 08:52:45;;;;;;;;;;;;;;;;;;6325788;28;19924;-90
2023/12/18 08:55:45;;;;;;;;;;;;;;;;;;6349275;28;19908;-90
2023/12/18 08:58:45;;;;;;;;;;;;;;;;;;6322252;28;19912;-90
2023/12/18 09:01:45;;;;;;;;;;;;;;;;;;6328341;28;19920;-90
2023/12/18 09:04:45;;;;;;;;;;;;;;;;;;6339736;28;20422;-90
2023/12/18 09:07:45;;;;;;;;;;;;;;;;;;6331111;28;20363;-89
2023/12/18 09:10:45;;;;;;;;;;;;;;;;;;6332670;28;19926;-89
2023/12/18 09:13:46;;;;;;;;;;;;;;;;;;6327934;28;20006;-89
2023/12/18 09:16:47;;;;;;;;;;;;;;;;;;6346777;28;19915;-88
2023/12/18 09:19:47;;;;;;;;;;;;;;;;;;6329229;28;20261;-88
2023/12/18 09:22:50;;;;;;;;;;;;;;;;;;6344465;27;20382;-88
2023/12/18 09:25:50;;;;;;;;;;;;;;;;;;6347793;28;19960;-88
2023/12/18 09:28:50;;;;;;;;;;;;;;;;;;6327893;28;19924;-90
2023/12/18 09:31:50;;;;;;;;;;;;;;;;;;6339956;28;19957;-90
2023/12/18 09:34:51;;;;;;;;;;;;;;;;;;6346395;28;20067;-90
2023/12/18 09:37:51;;;;;;;;;;;;;;;;;;6317563;28;20117;-90
2023/12/18 09:40:51;;;;;;;;;;;;;;;;;;6320812;28;19928;-90
2023/12/18 09:43:52;;;;;;;;;;;;;;;;;;6322389;28;20376;-90
2023/12/18 09:46:52;;;;;;;;;;;;;;;;;;6345379;28;19916;-89
2023/12/18 09:49:54;;;;;;;;;;;;;;;;;;6330022;28;19955;-89
2023/12/18 09:52:54;;;;;;;;;;;;;;;;;;6332248;28;19957;-90
2023/12/18 09:55:54;;;;;;;;;;;;;;;;;;6347464;28;19911;-89
2023/12/18 09:58:54;;;;;;;;;;;;;;;;;;6328536;28;19919;-90
2023/12/18 10:01:55;;;;;;;;;;;;;;;;;;6317408;28;19920;-90
2023/12/18 10:04:55;;;;;;;;;;;;;;;;;;6322266;28;19920;-90
2023/12/18 10:07:55;;;;;;;;;;;;;;;;;;6317788;28;19939;-87
2023/12/18 10:10:55;;;;;;;;;;;;;;;;;;6308593;28;19971;-86
2023/12/18 10:13:55;;;;;;;;;;;;;;;;;;6324723;28;20295;-86
2023/12/18 10:16:55;;;;;;;;;;;;;;;;;;6315116;28;19912;-86
2023/12/18 10:19:56;;;;;;;;;;;;;;;;;;6315768;28;19941;-86
2023/12/18 10:22:56;;;;;;;;;;;;;;;;;;6310003;28;19916;-86
2023/12/18 10:25:56;;;;;;;;;;;;;;;;;;6322139;28;20000;-88
2023/12/18 10:28:56;;;;;;;;;;;;;;;;;;6321166;28;19916;-87
2023/12/18 10:31:56;;;;;;;;;;;;;;;;;;6310855;28;19908;-88
2023/12/18 10:34:56;;;;;;;;;;;;;;;;;;6320949;28;19962;-81
2023/12/18 10:37:56;;;;;;;;;;;;;;;;;;6307198;28;19966;-83
2023/12/18 10:40:57;;;;;;;;;;;;;;;;;;6327320;28;19943;-83
2023/12/18 10:43:57;;;;;;;;;;;;;;;;;;6319707;28;19916;-84
2023/12/18 10:46:57;;;;;;;;;;;;;;;;;;6325576;28;19965;-82
2023/12/18 10:49:57;;;;;;;;;;;;;;;;;;6320317;28;19935;-82
2023/12/18 10:52:57;;;;;;;;;;;;;;;;;;6318317;28;19912;-83
2023/12/18 10:55:57;;;;;;;;;;;;;;;;;;6312433;28;19920;-82
2023/12/18 10:58:59;;;;;;;;;;;;;;;;;;6296609;28;19912;-82
2023/12/18 11:01:59;;;;;;;;;;;;;;;;;;6332220;28;19924;-82
2023/12/18 11:04:59;;;;;;;;;;;;;;;;;;6346854;28;20032;-81
2023/12/18 11:08:00;;;;;;;;;;;;;;;;;;6336330;28;20315;-82
2023/12/18 11:11:01;;;;;;;;;;;;;;;;;;6346807;28;19916;-82
2023/12/18 11:14:01;;;;;;;;;;;;;;;;;;6349056;28;19912;-83
2023/12/18 11:17:01;;;;;;;;;;;;;;;;;;6327487;28;20006;-83
2023/12/18 11:20:02;;;;;;;;;;;;;;;;;;6330028;28;20026;-83
2023/12/18 11:23:02;;;;;;;;;;;;;;;;;;6343097;28;19957;-82
2023/12/18 11:26:02;;;;;;;;;;;;;;;;;;6329628;28;20011;-86
2023/12/18 11:29:02;;;;;;;;;;;;;;;;;;6339486;28;19922;-86
2023/12/18 11:32:03;;;;;;;;;;;;;;;;;;6349343;28;19968;-84
2023/12/18 11:35:03;;;;;;;;;;;;;;;;;;6349714;28;19951;-83
2023/12/18 11:38:05;;;;;;;;;;;;;;;;;;6346145;28;20076;-82
2023/12/18 11:41:05;;;;;;;;;;;;;;;;;;6329252;28;19924;-83
2023/12/18 11:44:06;;;;;;;;;;;;;;;;;;6344025;28;19946;-82
2023/12/18 11:47:06;;;;;;;;;;;;;;;;;;6350250;28;19919;-82
2023/12/18 11:50:06;;;;;;;;;;;;;;;;;;6341672;28;19930;-82
2023/12/18 11:53:06;;;;;;;;;;;;;;;;;;6348242;28;20347;-82
2023/12/18 11:56:07;;;;;;;;;;;;;;;;;;6328116;28;19912;-82
2023/12/18 11:59:07;;;;;;;;;;;;;;;;;;6340331;28;19911;-84
2023/12/18 12:02:07;;;;;;;;;;;;;;;;;;6329085;28;19920;-82
2023/12/18 12:05:09;;;;;;;;;;;;;;;;;;6346406;28;19923;-82
2023/12/18 12:08:10;;;;;;;;;;;;;;;;;;6328677;28;19915;-82
2023/12/18 12:11:10;;;;;;;;;;;;;;;;;;6347472;28;20279;-82
2023/12/18 12:14:10;;;;;;;;;;;;;;;;;;6315052;28;19908;-82
2023/12/18 12:17:10;;;;;;;;;;;;;;;;;;6348259;28;20366;-82
2023/12/18 12:20:10;;;;;;;;;;;;;;;;;;6349811;28;20287;-81
2023/12/18 12:23:10;;;;;;;;;;;;;;;;;;6346030;28;19908;-83
2023/12/18 12:26:10;;;;;;;;;;;;;;;;;;6328310;28;19912;-84
2023/12/18 12:29:11;;;;;;;;;;;;;;;;;;6348695;28;20011;-82
2023/12/18 12:32:11;;;;;;;;;;;;;;;;;;6348828;28;20327;-82
2023/12/18 12:35:11;;;;;;;;;;;;;;;;;;6339107;28;19912;-81
2023/12/18 12:38:11;;;;;;;;;;;;;;;;;;6314370;28;19916;-82
2023/12/18 12:41:11;;;;;;;;;;;;;;;;;;6337146;28;20333;-82
2023/12/18 12:44:12;;;;;;;;;;;;;;;;;;6318732;28;19951;-82
2023/12/18 12:47:12;;;;;;;;;;;;;;;;;;6338931;28;19912;-81
2023/12/18 12:50:12;;;;;;;;;;;;;;;;;;6347664;28;19915;-81
2023/12/18 12:53:13;;;;;;;;;;;;;;;;;;6332275;28;19908;-82
2023/12/18 12:56:13;;;;;;;;;;;;;;;;;;6337847;28;19998;-82
2023/12/18 12:59:13;;;;;;;;;;;;;;;;;;6345019;28;19958;-81
2023/12/18 13:02:13;;;;;;;;;;;;;;;;;;6347400;28;19951;-82
2023/12/18 13:05:13;;;;;;;;;;;;;;;;;;6346877;28;20321;-84
2023/12/18 13:08:13;;;;;;;;;;;;;;;;;;6341110;28;20313;-83
2023/12/18 13:11:16;;;;;;;;;;;;;;;;;;6344624;28;19916;-84
2023/12/18 13:14:16;;;;;;;;;;;;;;;;;;6328735;28;20328;-87
2023/12/18 13:17:16;;;;;;;;;;;;;;;;;;6347898;28;20412;-83
2023/12/18 13:20:17;;;;;;;;;;;;;;;;;;6347719;28;20362;-84
2023/12/18 13:23:18;;;;;;;;;;;;;;;;;;6347324;27;20413;-82
2023/12/18 13:26:18;;;;;;;;;;;;;;;;;;6343671;28;19951;-84
2023/12/18 13:29:18;;;;;;;;;;;;;;;;;;6347552;28;20300;-83
2023/12/18 13:32:20;;;;;;;;;;;;;;;;;;6345002;28;19907;-84
2023/12/18 13:35:20;;;;;;;;;;;;;;;;;;6345614;28;19911;-81
2023/12/18 13:38:20;;;;;;;;;;;;;;;;;;6347530;28;19915;-85
2023/12/18 13:41:21;;;;;;;;;;;;;;;;;;6343677;28;19926;-83
2023/12/18 13:44:21;;;;;;;;;;;;;;;;;;6345594;27;19919;-83
2023/12/18 13:47:21;;;;;;;;;;;;;;;;;;6346752;28;19920;-82
2023/12/18 13:50:22;;;;;;;;;;;;;;;;;;6346020;28;19922;-81
2023/12/18 13:53:22;;;;;;;;;;;;;;;;;;6347107;28;20053;-82
2023/12/18 13:56:22;;;;;;;;;;;;;;;;;;6337093;28;20044;-80
2023/12/18 13:59:22;;;;;;;;;;;;;;;;;;6340491;28;20026;-81
2023/12/18 14:02:23;;;;;;;;;;;;;;;;;;6337526;28;20353;-87
2023/12/18 14:05:25;;;;;;;;;;;;;;;;;;6347535;28;19926;-87
2023/12/18 14:08:25;;;;;;;;;;;;;;;;;;6348235;28;19912;-88
2023/12/18 14:11:26;;;;;;;;;;;;;;;;;;6345948;28;19912;-87
2023/12/18 14:14:27;;;;;;;;;;;;;;;;;;6330016;28;19912;-87
2023/12/18 14:17:27;;;;;;;;;;;;;;;;;;6347793;28;20321;-87
2023/12/18 14:20:28;;;;;;;;;;;;;;;;;;6335341;28;19931;-87
2023/12/18 14:23:28;;;;;;;;;;;;;;;;;;6349182;28;19914;-87
2023/12/18 14:26:29;;;;;;;;;;;;;;;;;;6346328;28;19912;-85
2023/12/18 14:29:29;;;;;;;;;;;;;;;;;;6349145;28;20002;-85
2023/12/18 14:32:29;;;;;;;;;;;;;;;;;;6347277;28;19908;-85
2023/12/18 14:35:29;;;;;;;;;;;;;;;;;;6340974;28;20007;-87
2023/12/18 14:38:29;;;;;;;;;;;;;;;;;;6339910;28;20283;-87
2023/12/18 14:41:29;;;;;;;;;;;;;;;;;;6323137;28;19969;-87
2023/12/18 14:44:34;;;;;;;;;;;;;;;;;;6334017;28;20368;-86
2023/12/18 14:47:35;;;;;;;;;;;;;;;;;;6339837;28;19914;-87
2023/12/18 14:50:35;;;;;;;;;;;;;;;;;;6352901;28;19908;-87
2023/12/18 14:53:35;;;;;;;;;;;;;;;;;;6352120;28;20241;-87
2023/12/18 14:56:35;;;;;;;;;;;;;;;;;;6350376;28;20006;-87
2023/12/18 14:59:36;;;;;;;;;;;;;;;;;;6353149;28;20010;-87
2023/12/18 15:02:36;;;;;;;;;;;;;;;;;;6351481;28;19995;-87
2023/12/18 15:05:36;;;;;;;;;;;;;;;;;;6350885;28;19919;-87
2023/12/18 15:08:37;;;;;;;;;;;;;;;;;;6354323;28;19907;-87
2023/12/18 15:11:37;;;;;;;;;;;;;;;;;;6350564;28;20343;-87
2023/12/18 15:14:37;;;;;;;;;;;;;;;;;;6350587;28;19918;-87
2023/12/18 15:17:37;;;;;;;;;;;;;;;;;;6321791;28;19912;-87
2023/12/18 15:20:37;;;;;;;;;;;;;;;;;;6322880;28;19924;-87
2023/12/18 15:23:37;;;;;;;;;;;;;;;;;;6349226;27;19916;-86
2023/12/18 15:26:37;;;;;;;;;;;;;;;;;;6332295;28;20002;-86
2023/12/18 15:29:38;;;;;;;;;;;;;;;;;;6352603;28;20272;-87
2023/12/18 15:32:41;;;;;;;;;;;;;;;;;;6350554;28;19986;-86
2023/12/18 15:35:41;;;;;;;;;;;;;;;;;;6353413;28;19912;-87
2023/12/18 15:38:41;;;;;;;;;;;;;;;;;;6325479;28;20020;-87
2023/12/18 15:41:41;;;;;;;;;;;;;;;;;;6330994;28;20388;-86
2023/12/18 15:44:41;;;;;;;;;;;;;;;;;;6351762;28;20314;-87
2023/12/18 15:47:41;;;;;;;;;;;;;;;;;;6352171;28;19989;-87
2023/12/18 15:50:42;;;;;;;;;;;;;;;;;;6351476;28;19934;-87
2023/12/18 15:53:44;;;;;;;;;;;;;;;;;;6338258;28;19916;-87
2023/12/18 15:56:44;;;;;;;;;;;;;;;;;;6338239;28;19911;-85
2023/12/18 15:59:45;;;;;;;;;;;;;;;;;;6345037;28;20374;-85
2023/12/18 16:02:45;;;;;;;;;;;;;;;;;;6329472;28;19955;-87
2023/12/18 16:05:45;;;;;;;;;;;;;;;;;;6343240;28;20003;-87
2023/12/18 16:08:45;;;;;;;;;;;;;;;;;;6348371;28;19935;-87
2023/12/18 16:11:47;;;;;;;;;;;;;;;;;;6347971;28;19966;-87
2023/12/18 16:14:47;;;;;;;;;;;;;;;;;;6330307;28;19918;-87
2023/12/18 16:17:47;;;;;;;;;;;;;;;;;;6344448;28;19911;-87
2023/12/18 16:20:48;;;;;;;;;;;;;;;;;;6344769;28;19923;-86
2023/12/18 16:23:48;;;;;;;;;;;;;;;;;;6350060;28;19907;-88
2023/12/18 16:26:48;;;;;;;;;;;;;;;;;;6320159;28;19912;-87
2023/12/18 16:29:53;;;;;;;;;;;;;;;;;;6341756;28;20352;-87
2023/12/18 16:32:53;;;;;;;;;;;;;;;;;;6314620;28;19912;-87
2023/12/18 16:35:53;;;;;;;;;;;;;;;;;;6331199;28;19911;-87
2023/12/18 16:38:54;;;;;;;;;;;;;;;;;;6349415;28;19908;-87
2023/12/18 16:41:54;;;;;;;;;;;;;;;;;;6347940;28;19964;-86
2023/12/18 16:44:54;;;;;;;;;;;;;;;;;;6338952;28;19916;-86
2023/12/18 16:47:55;;;;;;;;;;;;;;;;;;6341288;28;19939;-86
2023/12/18 16:50:55;;;;;;;;;;;;;;;;;;6349049;28;19915;-87
2023/12/18 16:53:55;;;;;;;;;;;;;;;;;;6340449;28;19912;-86
2023/12/18 16:56:56;;;;;;;;;;;;;;;;;;6344979;28;19946;-85
2023/12/18 16:59:56;;;;;;;;;;;;;;;;;;6349074;28;20049;-84
2023/12/18 17:02:56;;;;;;;;;;;;;;;;;;6342281;28;19926;-86
2023/12/18 17:05:56;;;;;;;;;;;;;;;;;;6349639;28;19908;-85
2023/12/18 17:08:57;;;;;;;;;;;;;;;;;;6348042;28;19912;-85
2023/12/18 17:11:57;;;;;;;;;;;;;;;;;;6332379;28;19912;-86
2023/12/18 17:14:58;;;;;;;;;;;;;;;;;;6323677;28;19918;-86
2023/12/18 17:17:58;;;;;;;;;;;;;;;;;;6332700;28;19913;-85
2023/12/18 17:20:58;;;;;;;;;;;;;;;;;;6345413;28;20261;-85
2023/12/18 17:23:58;;;;;;;;;;;;;;;;;;6343377;28;19912;-85
2023/12/18 17:26:58;;;;;;;;;;;;;;;;;;6333430;28;20360;-85
2023/12/18 17:29:58;;;;;;;;;;;;;;;;;;6347361;28;19935;-85
2023/12/18 17:32:58;;;;;;;;;;;;;;;;;;6322749;28;20433;-84
2023/12/18 17:35:59;;;;;;;;;;;;;;;;;;6347078;28;20364;-85
2023/12/18 17:38:59;;;;;;;;;;;;;;;;;;6344554;28;19961;-86
2023/12/18 17:41:59;;;;;;;;;;;;;;;;;;6341234;28;19920;-85
2023/12/18 17:45:00;;;;;;;;;;;;;;;;;;6345208;28;19912;-78
2023/12/18 17:48:00;;;;;;;;;;;;;;;;;;6334350;28;19959;-78
2023/12/18 17:51:00;;;;;;;;;;;;;;;;;;6345344;28;19919;-79
2023/12/18 17:54:00;;;;;;;;;;;;;;;;;;6346297;28;19919;-86
2023/12/18 17:57:03;;;;;;;;;;;;;;;;;;6344961;28;20464;-86
2023/12/18 18:00:03;;;;;;;;;;;;;;;;;;6333792;28;19923;-86
2023/12/18 18:03:03;;;;;;;;;;;;;;;;;;6346109;28;19924;-87
2023/12/18 18:06:03;;;;;;;;;;;;;;;;;;6341018;28;20329;-87
2023/12/18 18:09:04;;;;;;;;;;;;;;;;;;6345860;28;20275;-86
2023/12/18 18:12:05;;;;;;;;;;;;;;;;;;6346687;28;19907;-86
2023/12/18 18:15:05;;;;;;;;;;;;;;;;;;6332416;28;19912;-86
2023/12/18 18:18:05;;;;;;;;;;;;;;;;;;6329620;28;19923;-89
2023/12/18 18:21:06;;;;;;;;;;;;;;;;;;6348395;28;19927;-89
2023/12/18 18:24:06;;;;;;;;;;;;;;;;;;6354731;28;19912;-88
2023/12/18 18:27:06;;;;;;;;;;;;;;;;;;6350872;28;19912;-89
2023/12/18 18:30:07;;;;;;;;;;;;;;;;;;6342734;28;19990;-84
2023/12/18 18:33:07;;;;;;;;;;;;;;;;;;6344694;28;19934;-84
2023/12/18 18:36:07;;;;;;;;;;;;;;;;;;6340854;28;20045;-83
2023/12/18 18:39:08;;;;;;;;;;;;;;;;;;6348175;28;19911;-83
2023/12/18 18:42:08;;;;;;;;;;;;;;;;;;6327172;28;19920;-84
2023/12/18 18:45:08;;;;;;;;;;;;;;;;;;6351459;28;19969;-81
2023/12/18 18:48:11;;;;;;;;;;;;;;;;;;6344813;28;19912;-81
2023/12/18 18:51:11;;;;;;;;;;;;;;;;;;6347060;28;20564;-81
2023/12/18 18:54:11;;;;;;;;;;;;;;;;;;6331120;28;19912;-83
2023/12/18 18:57:11;;;;;;;;;;;;;;;;;;6343648;28;19919;-83
2023/12/18 19:00:12;;;;;;;;;;;;;;;;;;6345779;28;19934;-82
2023/12/18 19:03:12;;;;;;;;;;;;;;;;;;6339485;28;20308;-82
2023/12/18 19:06:12;;;;;;;;;;;;;;;;;;6345492;28;19920;-82
2023/12/18 19:09:12;;;;;;;;;;;;;;;;;;6312694;28;19950;-83
2023/12/18 19:12:13;;;;;;;;;;;;;;;;;;6339038;28;19923;-82
2023/12/18 19:15:13;;;;;;;;;;;;;;;;;;6345511;28;20002;-82
2023/12/18 19:18:13;;;;;;;;;;;;;;;;;;6347688;28;19918;-82
2023/12/18 19:21:14;;;;;;;;;;;;;;;;;;6328640;28;19969;-82
2023/12/18 19:24:16;;;;;;;;;;;;;;;;;;6339974;28;19976;-82
2023/12/18 19:27:17;;;;;;;;;;;;;;;;;;6336722;28;19922;-82
2023/12/18 19:30:17;;;;;;;;;;;;;;;;;;6347405;28;19911;-82
2023/12/18 19:33:18;;;;;;;;;;;;;;;;;;6345906;28;20294;-83
2023/12/18 19:36:18;;;;;;;;;;;;;;;;;;6335448;28;19916;-84
2023/12/18 19:39:18;;;;;;;;;;;;;;;;;;6343608;28;19911;-83
2023/12/18 19:42:18;;;;;;;;;;;;;;;;;;6333468;28;19924;-83
2023/12/18 19:45:18;;;;;;;;;;;;;;;;;;6341412;27;19916;-82
2023/12/18 19:48:19;;;;;;;;;;;;;;;;;;6344190;27;19967;-82
2023/12/18 19:51:19;;;;;;;;;;;;;;;;;;6319591;28;19912;-83
2023/12/18 19:54:19;;;;;;;;;;;;;;;;;;6325783;28;19980;-83
2023/12/18 19:57:19;;;;;;;;;;;;;;;;;;6317604;28;19943;-83
2023/12/18 20:00:19;;;;;;;;;;;;;;;;;;6337891;28;19952;-82
2023/12/18 20:03:19;;;;;;;;;;;;;;;;;;6341198;28;19923;-83
2023/12/18 20:06:19;;;;;;;;;;;;;;;;;;6333403;28;19939;-83
2023/12/18 20:09:20;;;;;;;;;;;;;;;;;;6343372;28;19915;-82
2023/12/18 20:12:20;;;;;;;;;;;;;;;;;;6344753;28;20035;-82
2023/12/18 20:15:20;;;;;;;;;;;;;;;;;;6337559;28;19944;-82
2023/12/18 20:18:20;;;;;;;;;;;;;;;;;;6344762;28;19916;-83
2023/12/18 20:21:22;;;;;;;;;;;;;;;;;;6321451;28;19923;-82
2023/12/18 20:24:22;;;;;;;;;;;;;;;;;;6325138;28;19926;-83
2023/12/18 20:27:22;;;;;;;;;;;;;;;;;;6336683;28;20352;-82
2023/12/18 20:30:22;;;;;;;;;;;;;;;;;;6338606;28;19912;-82